createdAt,value
2022-10-06T00:01:09.694Z,4.11
2022-10-06T00:03:38.387Z,4.05
2022-10-06T00:06:05.501Z,3.78
2022-10-06T00:08:33.420Z,3.85
2022-10-06T00:11:00.070Z,3.95
2022-10-06T00:13:27.410Z,4.16
2022-10-06T00:15:54.552Z,4.34
2022-10-06T00:18:21.325Z,4.54
2022-10-06T00:20:57.689Z,4.52
2022-10-06T00:23:24.725Z,4.38
2022-10-06T00:25:51.649Z,4.28
2022-10-06T00:28:18.358Z,4.26
2022-10-06T00:30:46.431Z,4.11
2022-10-06T00:33:14.855Z,4.05
2022-10-06T00:35:42.069Z,3.96
2022-10-06T00:38:10.799Z,3.95
2022-10-06T00:40:42.673Z,3.99
2022-10-06T00:43:28.037Z,3.86
2022-10-06T00:45:54.656Z,3.64
2022-10-06T00:48:24.038Z,3.52
2022-10-06T00:50:54.473Z,3.50
2022-10-06T00:53:21.949Z,3.30
2022-10-06T00:55:48.633Z,3.18
2022-10-06T00:58:16.123Z,3.20
2022-10-06T01:00:44.276Z,3.12
2022-10-06T01:03:37.394Z,3.13
2022-10-06T01:06:05.124Z,3.16
2022-10-06T01:08:32.700Z,3.21
2022-10-06T01:10:59.396Z,3.20
2022-10-06T01:13:29.603Z,3.17
2022-10-06T01:16:00.047Z,3.13
2022-10-06T01:18:28.419Z,2.95
2022-10-06T01:21:02.374Z,3.09
2022-10-06T01:23:31.090Z,3.22
2022-10-06T01:25:58.621Z,3.13
2022-10-06T01:28:26.237Z,3.11
2022-10-06T01:30:55.740Z,3.25
2022-10-06T01:33:24.094Z,3.22
2022-10-06T01:35:52.662Z,3.29
2022-10-06T01:38:20.171Z,3.04
2022-10-06T01:40:51.185Z,2.90
2022-10-06T01:43:18.019Z,2.79
2022-10-06T01:45:44.766Z,2.70
2022-10-06T01:48:11.392Z,2.72
2022-10-06T01:50:40.435Z,2.73
2022-10-06T01:53:07.466Z,3.01
2022-10-06T01:55:34.197Z,2.82
2022-10-06T01:58:01.577Z,2.91
2022-10-06T02:00:28.520Z,2.78
2022-10-06T02:02:57.397Z,2.69
2022-10-06T02:05:26.194Z,2.71
2022-10-06T02:07:54.215Z,2.78
2022-10-06T02:10:21.320Z,2.61
2022-10-06T02:12:52.639Z,2.65
2022-10-06T02:15:21.583Z,2.67
2022-10-06T02:17:48.352Z,2.63
2022-10-06T02:20:15.728Z,2.69
2022-10-06T02:22:43.819Z,2.77
2022-10-06T02:25:12.141Z,2.64
2022-10-06T02:27:39.507Z,2.55
2022-10-06T02:30:08.077Z,2.60
2022-10-06T02:32:36.457Z,2.66
2022-10-06T02:35:03.940Z,2.65
2022-10-06T02:37:31.155Z,2.75
2022-10-06T02:40:00.116Z,2.60
2022-10-06T02:42:27.016Z,2.74
2022-10-06T02:44:54.197Z,2.65
2022-10-06T02:47:22.537Z,2.47
2022-10-06T02:49:49.079Z,2.43
2022-10-06T02:52:16.908Z,2.60
2022-10-06T02:54:43.530Z,2.47
2022-10-06T02:57:10.116Z,2.51
2022-10-06T02:59:36.719Z,2.58
2022-10-06T03:02:04.882Z,2.56
2022-10-06T03:04:31.540Z,2.61
2022-10-06T03:06:58.084Z,2.49
2022-10-06T03:09:27.800Z,2.61
2022-10-06T03:11:55.431Z,2.43
2022-10-06T03:14:30.668Z,2.51
2022-10-06T03:16:57.463Z,2.35
2022-10-06T03:19:26.846Z,2.43
2022-10-06T03:21:54.045Z,2.40
2022-10-06T03:24:24.531Z,2.48
2022-10-06T03:26:55.608Z,2.38
2022-10-06T03:29:22.271Z,2.44
2022-10-06T03:31:53.390Z,2.48
2022-10-06T03:34:20.151Z,2.44
2022-10-06T03:36:46.774Z,2.38
2022-10-06T03:39:16.105Z,2.54
2022-10-06T03:41:43.115Z,2.64
2022-10-06T03:44:10.034Z,2.79
2022-10-06T03:46:40.006Z,2.79
2022-10-06T03:49:07.840Z,2.81
2022-10-06T03:51:37.328Z,2.76
2022-10-06T03:54:04.684Z,2.69
2022-10-06T03:56:34.871Z,2.71
2022-10-06T03:59:02.714Z,2.76
2022-10-06T04:01:31.343Z,2.62
2022-10-06T04:03:58.670Z,2.77
2022-10-06T04:06:25.938Z,2.72
2022-10-06T04:08:52.850Z,2.71
2022-10-06T04:11:21.537Z,2.73
2022-10-06T04:13:49.204Z,2.68
2022-10-06T04:16:17.059Z,2.56
2022-10-06T04:18:45.174Z,2.42
2022-10-06T04:21:12.868Z,2.42
2022-10-06T04:23:40.380Z,2.36
2022-10-06T04:26:10.571Z,2.32
2022-10-06T04:28:38.260Z,2.32
2022-10-06T04:31:06.242Z,2.42
2022-10-06T04:33:34.199Z,2.45
2022-10-06T04:36:03.909Z,2.53
2022-10-06T04:38:34.192Z,2.49
2022-10-06T04:41:05.404Z,2.74
2022-10-06T04:43:34.606Z,2.81
2022-10-06T04:46:13.099Z,2.72
2022-10-06T04:48:52.808Z,2.71
2022-10-06T04:51:20.981Z,2.83
2022-10-06T04:53:48.415Z,3.17
2022-10-06T04:56:17.475Z,3.38
2022-10-06T04:58:45.713Z,3.45
2022-10-06T05:01:22.712Z,3.56
2022-10-06T05:03:50.685Z,3.55
2022-10-06T05:06:37.015Z,3.60
2022-10-06T05:09:11.176Z,3.68
2022-10-06T05:11:40.596Z,3.78
2022-10-06T05:14:10.568Z,3.66
2022-10-06T05:16:40.520Z,3.60
2022-10-06T05:19:08.323Z,3.73
2022-10-06T05:21:37.725Z,3.70
2022-10-06T05:24:05.862Z,3.71
2022-10-06T05:26:34.254Z,3.81
2022-10-06T05:29:02.880Z,4.00
2022-10-06T05:31:31.746Z,4.14
2022-10-06T05:34:00.591Z,4.37
2022-10-06T05:36:32.630Z,4.43
2022-10-06T05:39:00.411Z,4.57
2022-10-06T05:41:32.235Z,4.77
2022-10-06T05:44:02.021Z,4.64
2022-10-06T05:46:30.249Z,4.79
2022-10-06T05:48:59.125Z,4.89
2022-10-06T05:51:31.442Z,5.12
2022-10-06T05:54:00.710Z,5.29
2022-10-06T05:56:30.320Z,5.51
2022-10-06T05:58:58.122Z,5.61
2022-10-06T06:01:27.514Z,5.74
2022-10-06T06:03:59.429Z,5.74
2022-10-06T06:06:28.803Z,5.86
2022-10-06T06:09:00.249Z,6.22
2022-10-06T06:11:28.399Z,6.18
2022-10-06T06:13:57.870Z,6.32
2022-10-06T06:16:24.927Z,6.44
2022-10-06T06:18:51.990Z,6.52
2022-10-06T06:21:19.010Z,6.56
2022-10-06T06:23:46.761Z,6.77
2022-10-06T06:26:23.599Z,6.95
2022-10-06T06:28:51.784Z,7.14
2022-10-06T06:31:26.709Z,7.20
2022-10-06T06:33:56.366Z,7.28
2022-10-06T06:36:27.271Z,7.26
2022-10-06T06:38:55.243Z,7.41
2022-10-06T06:41:23.936Z,7.65
2022-10-06T06:43:56.504Z,7.77
2022-10-06T06:46:32.295Z,7.88
2022-10-06T06:49:06.314Z,7.99
2022-10-06T06:51:49.813Z,8.14
2022-10-06T06:54:18.461Z,8.37
2022-10-06T06:56:48.972Z,8.44
2022-10-06T06:59:20.425Z,8.42
2022-10-06T07:01:50.093Z,8.63
2022-10-06T07:07:12.379Z,8.47
2022-10-06T07:09:39.084Z,8.87
2022-10-06T07:12:11.591Z,9.26
2022-10-06T07:15:02.770Z,9.36
2022-10-06T07:17:50.229Z,9.28
2022-10-06T07:20:36.367Z,9.15
2022-10-06T07:23:22.635Z,9.38
2022-10-06T07:25:49.317Z,9.50
2022-10-06T07:28:17.020Z,9.86
2022-10-06T07:30:44.898Z,10.09
2022-10-06T07:33:15.476Z,10.30
2022-10-06T07:35:43.909Z,10.32
2022-10-06T07:38:11.492Z,10.43
2022-10-06T07:40:50.484Z,10.77
2022-10-06T07:43:17.744Z,10.96
2022-10-06T07:49:00.264Z,10.83
2022-10-06T07:51:27.391Z,11.03
2022-10-06T07:53:56.207Z,11.18
2022-10-06T07:56:27.996Z,11.32
2022-10-06T07:58:58.597Z,11.49
2022-10-06T08:01:27.442Z,11.62
2022-10-06T08:03:54.172Z,11.55
2022-10-06T08:06:23.602Z,11.52
2022-10-06T08:08:53.239Z,11.74
2022-10-06T08:11:21.660Z,11.93
2022-10-06T08:13:48.504Z,11.89
2022-10-06T08:16:17.763Z,11.69
2022-10-06T08:18:48.242Z,11.60
2022-10-06T08:21:16.359Z,11.96
2022-10-06T08:23:43.487Z,12.51
2022-10-06T08:26:10.884Z,12.60
2022-10-06T08:28:38.078Z,12.42
2022-10-06T08:31:11.903Z,12.70
2022-10-06T08:33:39.600Z,12.56
2022-10-06T08:36:08.736Z,13.10
2022-10-06T08:38:37.181Z,13.31
2022-10-06T08:41:16.401Z,13.51
2022-10-06T08:43:43.758Z,13.51
2022-10-06T08:46:14.598Z,13.78
2022-10-06T08:48:41.296Z,13.90
2022-10-06T08:51:24.031Z,13.70
2022-10-06T08:54:06.028Z,14.16
2022-10-06T08:56:35.917Z,14.05
2022-10-06T08:59:04.388Z,13.57
2022-10-06T09:01:38.891Z,13.88
2022-10-06T09:04:07.936Z,13.87
2022-10-06T09:06:53.072Z,14.16
2022-10-06T09:09:25.666Z,14.52
2022-10-06T09:11:58.490Z,14.56
2022-10-06T09:14:31.024Z,14.52
2022-10-06T09:17:01.989Z,15.10
2022-10-06T09:19:37.457Z,15.54
2022-10-06T09:22:05.192Z,15.02
2022-10-06T09:24:37.611Z,15.12
2022-10-06T09:27:16.787Z,15.36
2022-10-06T09:29:43.367Z,15.51
2022-10-06T09:32:11.019Z,15.32
2022-10-06T09:34:40.958Z,15.60
2022-10-06T09:37:12.880Z,15.96
2022-10-06T09:39:48.173Z,15.91
2022-10-06T09:42:19.737Z,16.44
2022-10-06T09:44:50.909Z,16.63
2022-10-06T09:47:36.489Z,16.57
2022-10-06T09:50:12.038Z,16.81
2022-10-06T09:52:39.300Z,16.69
2022-10-06T09:55:12.427Z,16.56
2022-10-06T09:57:39.604Z,16.84
2022-10-06T10:00:26.924Z,17.63
2022-10-06T10:03:07.370Z,17.50
2022-10-06T10:05:36.479Z,17.37
2022-10-06T10:08:03.142Z,16.54
2022-10-06T10:10:29.997Z,16.77
2022-10-06T10:13:00.109Z,17.07
2022-10-06T10:15:50.084Z,17.17
2022-10-06T10:18:17.099Z,17.53
2022-10-06T10:21:05.255Z,17.72
2022-10-06T10:23:32.863Z,18.05
2022-10-06T10:26:08.483Z,17.77
2022-10-06T10:28:42.792Z,17.94
2022-10-06T10:31:09.563Z,18.60
2022-10-06T10:33:49.700Z,18.56
2022-10-06T10:36:33.379Z,18.66
2022-10-06T10:39:01.449Z,18.75
2022-10-06T10:41:32.577Z,18.40
2022-10-06T10:44:10.061Z,18.33
2022-10-06T10:46:42.527Z,18.38
2022-10-06T10:49:13.647Z,18.65
2022-10-06T10:51:43.085Z,18.82
2022-10-06T10:54:21.382Z,19.81
2022-10-06T10:56:49.728Z,20.54
2022-10-06T10:59:26.179Z,20.69
2022-10-06T11:01:52.811Z,20.52
2022-10-06T11:04:20.492Z,19.92
2022-10-06T11:07:02.117Z,19.32
2022-10-06T11:09:47.186Z,19.73
2022-10-06T11:12:33.505Z,19.79
2022-10-06T11:15:03.421Z,20.42
2022-10-06T11:17:45.577Z,19.92
2022-10-06T11:20:27.760Z,20.10
2022-10-06T11:22:56.908Z,21.08
2022-10-06T11:25:36.715Z,20.91
2022-10-06T11:28:06.073Z,20.24
2022-10-06T11:30:36.936Z,20.60
2022-10-06T11:33:24.796Z,21.07
2022-10-06T11:35:51.752Z,21.68
2022-10-06T11:38:35.922Z,22.62
2022-10-06T11:41:17.496Z,23.54
2022-10-06T11:43:51.818Z,22.04
2022-10-06T11:46:35.568Z,21.27
2022-10-06T11:49:21.228Z,21.67
2022-10-06T11:51:47.765Z,21.62
2022-10-06T11:54:33.138Z,21.75
2022-10-06T11:56:59.832Z,21.26
2022-10-06T11:59:27.741Z,21.99
2022-10-06T12:02:00.559Z,22.20
2022-10-06T12:04:27.604Z,22.18
2022-10-06T12:06:55.875Z,22.62
2022-10-06T12:09:28.748Z,23.13
2022-10-06T12:11:56.486Z,22.71
2022-10-06T12:16:00.143Z,23.18
2022-10-06T12:17:23.836Z,23.22
2022-10-06T12:19:53.797Z,22.44
2022-10-06T12:22:31.019Z,22.37
2022-10-06T12:25:02.997Z,22.85
2022-10-06T12:27:48.109Z,23.64
2022-10-06T12:30:27.928Z,24.01
2022-10-06T12:32:55.954Z,24.08
2022-10-06T12:35:24.733Z,23.89
2022-10-06T12:37:54.429Z,24.57
2022-10-06T12:40:47.008Z,24.61
2022-10-06T12:43:17.432Z,24.95
2022-10-06T12:45:47.192Z,25.20
2022-10-06T12:48:37.200Z,24.95
2022-10-06T12:51:06.520Z,24.70
2022-10-06T12:53:39.491Z,25.37
2022-10-06T12:56:12.215Z,26.10
2022-10-06T12:58:39.663Z,25.19
2022-10-06T13:01:09.578Z,24.75
2022-10-06T13:03:36.996Z,23.94
2022-10-06T13:06:07.829Z,23.80
2022-10-06T13:08:38.413Z,24.00
2022-10-06T13:11:22.238Z,24.39
2022-10-06T13:13:50.150Z,24.49
2022-10-06T13:16:21.832Z,25.27
2022-10-06T13:18:49.254Z,25.85
2022-10-06T13:21:16.511Z,25.45
2022-10-06T13:23:45.505Z,25.92
2022-10-06T13:26:20.230Z,26.12
2022-10-06T13:28:48.090Z,25.60
2022-10-06T13:31:14.776Z,25.76
2022-10-06T13:33:42.389Z,26.36
2022-10-06T13:36:10.942Z,26.69
2022-10-06T13:38:38.040Z,27.80
2022-10-06T13:41:06.317Z,27.49
2022-10-06T13:43:39.714Z,27.34
2022-10-06T13:46:07.869Z,26.83
2022-10-06T13:48:34.710Z,26.21
2022-10-06T13:51:03.492Z,26.58
2022-10-06T13:53:31.297Z,26.72
2022-10-06T13:55:58.574Z,26.65
2022-10-06T13:58:27.707Z,27.32
2022-10-06T14:00:56.254Z,27.41
2022-10-06T14:03:24.505Z,27.16
2022-10-06T14:05:51.916Z,26.41
2022-10-06T14:08:26.886Z,26.68
2022-10-06T14:10:55.461Z,27.18
2022-10-06T14:13:26.539Z,27.58
2022-10-06T14:16:02.008Z,28.07
2022-10-06T14:18:42.966Z,26.70
2022-10-06T14:21:19.930Z,26.71
2022-10-06T14:23:53.083Z,25.98
2022-10-06T14:26:25.181Z,24.91
2022-10-06T14:28:53.066Z,24.48
2022-10-06T14:31:20.249Z,24.98
2022-10-06T14:33:48.025Z,24.48
2022-10-06T14:36:19.489Z,24.73
2022-10-06T14:38:47.082Z,24.73
2022-10-06T14:41:18.767Z,24.88
2022-10-06T14:43:48.556Z,23.96
2022-10-06T14:46:15.650Z,23.31
2022-10-06T14:48:43.612Z,23.26
2022-10-06T14:51:10.555Z,23.00
2022-10-06T14:53:39.435Z,23.01
2022-10-06T14:56:10.722Z,22.20
2022-10-06T14:58:38.778Z,22.33
2022-10-06T15:01:06.409Z,22.18
2022-10-06T15:03:33.584Z,22.09
2022-10-06T15:06:23.058Z,21.58
2022-10-06T15:08:51.075Z,21.33
2022-10-06T15:11:18.905Z,21.18
2022-10-06T15:13:46.204Z,21.42
2022-10-06T15:16:13.716Z,21.37
2022-10-06T15:18:42.845Z,21.41
2022-10-06T15:21:10.396Z,21.46
2022-10-06T15:23:37.652Z,21.37
2022-10-06T15:26:23.304Z,21.20
2022-10-06T15:29:03.262Z,21.03
2022-10-06T15:31:34.619Z,20.78
2022-10-06T15:34:02.374Z,20.36
2022-10-06T15:36:30.414Z,20.19
2022-10-06T15:38:58.331Z,19.75
2022-10-06T15:41:25.398Z,19.26
2022-10-06T15:43:55.920Z,19.01
2022-10-06T15:46:26.328Z,18.59
2022-10-06T15:48:53.746Z,18.25
2022-10-06T15:51:22.033Z,17.99
2022-10-06T15:53:49.442Z,17.90
2022-10-06T15:56:17.398Z,17.58
2022-10-06T15:58:45.058Z,17.27
2022-10-06T16:01:28.417Z,17.07
2022-10-06T16:03:55.330Z,16.75
2022-10-06T16:06:40.542Z,16.49
2022-10-06T16:09:08.744Z,16.21
2022-10-06T16:11:35.622Z,15.97
2022-10-06T16:14:02.370Z,15.75
2022-10-06T16:16:29.120Z,15.55
2022-10-06T16:18:55.756Z,15.50
2022-10-06T16:21:23.758Z,15.44
2022-10-06T16:23:53.950Z,15.52
2022-10-06T16:26:20.905Z,15.60
2022-10-06T16:28:55.314Z,15.49
2022-10-06T16:31:22.802Z,15.36
2022-10-06T16:33:50.629Z,15.24
2022-10-06T16:36:17.792Z,15.09
2022-10-06T16:38:44.560Z,14.88
2022-10-06T16:41:11.534Z,14.80
2022-10-06T16:43:41.923Z,14.66
2022-10-06T16:46:19.160Z,14.45
2022-10-06T16:48:46.407Z,14.40
2022-10-06T16:51:14.798Z,14.30
2022-10-06T16:53:42.986Z,14.22
2022-10-06T16:56:13.513Z,14.17
2022-10-06T16:58:44.202Z,14.20
2022-10-06T17:01:11.825Z,14.23
2022-10-06T17:03:38.937Z,14.10
2022-10-06T17:06:07.252Z,14.06
2022-10-06T17:08:34.179Z,14.14
2022-10-06T17:11:01.855Z,14.13
2022-10-06T17:13:28.627Z,14.20
2022-10-06T17:16:15.850Z,14.24
2022-10-06T17:18:43.639Z,14.28
2022-10-06T17:21:32.111Z,14.26
2022-10-06T17:24:00.456Z,14.28
2022-10-06T17:26:28.636Z,14.42
2022-10-06T17:28:57.189Z,14.31
2022-10-06T17:31:25.033Z,14.32
2022-10-06T17:33:51.667Z,14.26
2022-10-06T17:36:22.052Z,14.21
2022-10-06T17:38:53.093Z,14.21
2022-10-06T17:41:21.000Z,14.36
2022-10-06T17:43:50.633Z,14.51
2022-10-06T17:46:20.166Z,14.65
2022-10-06T17:48:51.366Z,14.61
2022-10-06T17:51:19.427Z,14.52
2022-10-06T17:53:47.368Z,14.45
2022-10-06T17:56:15.496Z,14.50
2022-10-06T17:58:42.895Z,14.55
2022-10-06T18:01:13.656Z,14.49
2022-10-06T18:03:43.876Z,14.56
2022-10-06T18:06:11.729Z,14.55
2022-10-06T18:08:39.187Z,14.46
2022-10-06T18:11:24.571Z,14.33
2022-10-06T18:13:51.158Z,14.29
2022-10-06T18:16:24.567Z,14.17
2022-10-06T18:18:51.967Z,14.00
2022-10-06T18:21:19.970Z,14.12
2022-10-06T18:23:47.322Z,14.06
2022-10-06T18:26:17.062Z,13.81
2022-10-06T18:28:47.711Z,13.26
2022-10-06T18:31:15.334Z,12.95
2022-10-06T18:36:06.687Z,12.78
2022-10-06T18:36:29.451Z,12.61
2022-10-06T18:39:00.363Z,12.52
2022-10-06T18:41:28.277Z,12.32
2022-10-06T18:43:55.451Z,12.18
2022-10-06T18:46:41.343Z,12.08
2022-10-06T18:49:15.873Z,11.98
2022-10-06T18:51:43.698Z,12.25
2022-10-06T18:54:15.353Z,12.27
2022-10-06T18:56:42.651Z,12.14
2022-10-06T18:59:12.281Z,11.95
2022-10-06T19:01:40.041Z,11.91
2022-10-06T19:04:09.884Z,11.64
2022-10-06T19:06:38.021Z,11.49
2022-10-06T19:09:06.321Z,11.07
2022-10-06T19:11:48.587Z,10.89
2022-10-06T19:14:16.566Z,10.62
2022-10-06T19:16:43.471Z,10.69
2022-10-06T19:19:12.349Z,10.71
2022-10-06T19:21:40.807Z,10.60
2022-10-06T19:24:08.796Z,10.54
2022-10-06T19:26:36.216Z,10.23
2022-10-06T19:29:04.119Z,10.06
2022-10-06T19:31:31.044Z,9.94
2022-10-06T19:34:01.713Z,9.92
2022-10-06T19:36:30.354Z,9.92
2022-10-06T19:38:58.516Z,9.99
2022-10-06T19:41:43.452Z,9.93
2022-10-06T19:44:10.025Z,9.67
2022-10-06T19:46:37.679Z,9.52
2022-10-06T19:49:05.982Z,9.53
2022-10-06T19:51:34.225Z,9.52
2022-10-06T19:54:02.654Z,9.30
2022-10-06T19:56:30.712Z,9.19
2022-10-06T19:58:58.541Z,9.09
2022-10-06T20:01:26.783Z,9.06
2022-10-06T20:03:53.748Z,8.93
2022-10-06T20:06:20.844Z,9.10
2022-10-06T20:08:47.442Z,8.89
2022-10-06T20:11:15.517Z,8.84
2022-10-06T20:13:42.855Z,8.80
2022-10-06T20:16:14.800Z,8.66
2022-10-06T20:18:42.209Z,8.66
2022-10-06T20:21:14.231Z,8.69
2022-10-06T20:23:41.015Z,8.67
2022-10-06T20:26:12.066Z,8.41
2022-10-06T20:28:38.764Z,8.36
2022-10-06T20:31:05.873Z,8.40
2022-10-06T20:33:33.349Z,8.41
2022-10-06T20:36:00.512Z,8.34
2022-10-06T20:38:47.020Z,8.23
2022-10-06T20:41:17.578Z,8.13
2022-10-06T20:43:44.337Z,8.13
2022-10-06T20:46:11.292Z,8.53
2022-10-06T20:48:38.770Z,8.43
2022-10-06T20:51:12.503Z,8.35
2022-10-06T20:53:39.543Z,8.21
2022-10-06T20:56:06.534Z,8.11
2022-10-06T20:58:33.230Z,7.93
2022-10-06T21:01:06.087Z,7.99
2022-10-06T21:03:33.675Z,7.97
2022-10-06T21:06:00.490Z,8.04
2022-10-06T21:08:27.165Z,7.94
2022-10-06T21:11:02.141Z,7.74
2022-10-06T21:13:29.855Z,7.65
2022-10-06T21:15:57.754Z,7.47
2022-10-06T21:18:28.232Z,7.40
2022-10-06T21:20:55.952Z,7.18
2022-10-06T21:23:22.627Z,7.46
2022-10-06T21:25:49.427Z,7.56
2022-10-06T21:28:16.050Z,7.33
2022-10-06T21:30:44.247Z,7.18
2022-10-06T21:33:10.840Z,7.34
2022-10-06T21:35:37.379Z,7.21
2022-10-06T21:38:04.566Z,6.97
2022-10-06T21:40:34.704Z,7.05
2022-10-06T21:43:01.278Z,6.98
2022-10-06T21:45:32.964Z,6.94
2022-10-06T21:47:59.869Z,6.72
2022-10-06T21:50:26.568Z,6.99
2022-10-06T21:52:53.157Z,7.13
2022-10-06T21:55:20.481Z,7.08
2022-10-06T21:57:47.291Z,6.92
2022-10-06T22:00:14.072Z,6.81
2022-10-06T22:02:40.890Z,6.72
2022-10-06T22:05:07.671Z,6.59
2022-10-06T22:07:34.203Z,6.83
2022-10-06T22:10:00.796Z,6.80
2022-10-06T22:12:27.426Z,6.63
2022-10-06T22:14:54.815Z,6.64
2022-10-06T22:17:21.501Z,6.51
2022-10-06T22:19:48.026Z,6.53
2022-10-06T22:22:14.652Z,6.61
2022-10-06T22:24:41.198Z,6.67
2022-10-06T22:27:07.760Z,6.89
2022-10-06T22:29:34.289Z,6.92
2022-10-06T22:32:00.930Z,6.76
2022-10-06T22:34:27.659Z,6.75
2022-10-06T22:36:54.169Z,6.84
2022-10-06T22:39:20.825Z,6.78
2022-10-06T22:41:47.404Z,6.70
2022-10-06T22:44:14.008Z,6.59
2022-10-06T22:46:40.901Z,6.51
2022-10-06T22:49:07.560Z,6.42
2022-10-06T22:51:34.556Z,6.39
2022-10-06T22:54:01.467Z,6.45
2022-10-06T22:56:29.026Z,6.34
2022-10-06T22:58:59.473Z,6.30
2022-10-06T23:01:26.648Z,6.35
2022-10-06T23:03:56.744Z,6.26
2022-10-06T23:06:23.426Z,6.45
2022-10-06T23:08:50.020Z,6.14
2022-10-06T23:11:17.965Z,5.98
2022-10-06T23:13:44.885Z,6.00
2022-10-06T23:16:15.466Z,5.96
2022-10-06T23:18:42.946Z,6.00
2022-10-06T23:21:23.003Z,5.93
2022-10-06T23:23:53.422Z,6.14
2022-10-06T23:26:20.649Z,6.14
2022-10-06T23:28:51.208Z,6.06
2022-10-06T23:31:17.889Z,5.86
2022-10-06T23:33:44.525Z,5.73
2022-10-06T23:36:12.084Z,5.88
2022-10-06T23:38:39.125Z,5.77
2022-10-06T23:41:06.549Z,5.74
2022-10-06T23:43:33.330Z,5.61
2022-10-06T23:46:00.086Z,5.58
2022-10-06T23:48:26.917Z,5.46
2022-10-06T23:50:56.939Z,5.59
2022-10-06T23:53:23.487Z,5.67
2022-10-06T23:55:50.135Z,5.55
2022-10-06T23:58:16.684Z,5.55
